sensor_id;sensor_type;location;lat;lon;timestamp;P1;durP1;ratioP1;P2;durP2;ratioP2
4837;SDS011;2433;48.768;9.154;2022-10-16T00:00:32;2.23;;;1.50;;
4837;SDS011;2433;48.768;9.154;2022-10-16T00:03:00;3.83;;;1.80;;
4837;SDS011;2433;48.768;9.154;2022-10-16T00:05:26;1.67;;;1.30;;
4837;SDS011;2433;48.768;9.154;2022-10-16T00:07:52;1.40;;;1.30;;
4837;SDS011;2433;48.768;9.154;2022-10-16T00:10:17;3.30;;;1.50;;
4837;SDS011;2433;48.768;9.154;2022-10-16T00:12:43;2.93;;;1.30;;
4837;SDS011;2433;48.768;9.154;2022-10-16T00:15:09;1.53;;;1.43;;
4837;SDS011;2433;48.768;9.154;2022-10-16T00:17:34;1.40;;;1.30;;
4837;SDS011;2433;48.768;9.154;2022-10-16T00:20:00;3.40;;;1.40;;
4837;SDS011;2433;48.768;9.154;2022-10-16T00:22:44;1.40;;;1.30;;
4837;SDS011;2433;48.768;9.154;2022-10-16T00:25:10;2.17;;;1.70;;
4837;SDS011;2433;48.768;9.154;2022-10-16T00:27:35;2.77;;;1.67;;
4837;SDS011;2433;48.768;9.154;2022-10-16T00:30:01;1.50;;;1.40;;
4837;SDS011;2433;48.768;9.154;2022-10-16T00:32:26;2.17;;;1.40;;
4837;SDS011;2433;48.768;9.154;2022-10-16T00:34:52;2.00;;;1.10;;
4837;SDS011;2433;48.768;9.154;2022-10-16T00:37:20;5.57;;;1.53;;
4837;SDS011;2433;48.768;9.154;2022-10-16T00:39:46;1.40;;;1.30;;
4837;SDS011;2433;48.768;9.154;2022-10-16T00:42:15;2.20;;;1.30;;
4837;SDS011;2433;48.768;9.154;2022-10-16T00:44:50;5.03;;;1.47;;
4837;SDS011;2433;48.768;9.154;2022-10-16T00:47:23;1.70;;;1.33;;
4837;SDS011;2433;48.768;9.154;2022-10-16T00:52:57;2.40;;;1.40;;
4837;SDS011;2433;48.768;9.154;2022-10-16T00:55:23;1.57;;;1.23;;
4837;SDS011;2433;48.768;9.154;2022-10-16T00:57:50;1.30;;;1.20;;
4837;SDS011;2433;48.768;9.154;2022-10-16T01:00:18;4.30;;;1.63;;
4837;SDS011;2433;48.768;9.154;2022-10-16T01:02:53;2.23;;;1.40;;
4837;SDS011;2433;48.768;9.154;2022-10-16T01:05:20;1.50;;;1.40;;
4837;SDS011;2433;48.768;9.154;2022-10-16T01:07:51;2.10;;;1.47;;
4837;SDS011;2433;48.768;9.154;2022-10-16T01:13:17;2.10;;;1.67;;
4837;SDS011;2433;48.768;9.154;2022-10-16T01:18:40;2.33;;;1.43;;
4837;SDS011;2433;48.768;9.154;2022-10-16T01:21:10;1.43;;;1.13;;
4837;SDS011;2433;48.768;9.154;2022-10-16T01:31:53;2.20;;;1.03;;
4837;SDS011;2433;48.768;9.154;2022-10-16T01:34:25;1.53;;;1.13;;
4837;SDS011;2433;48.768;9.154;2022-10-16T01:37:19;1.20;;;1.10;;
4837;SDS011;2433;48.768;9.154;2022-10-16T01:39:47;1.97;;;1.17;;
4837;SDS011;2433;48.768;9.154;2022-10-16T01:42:21;1.60;;;1.33;;
4837;SDS011;2433;48.768;9.154;2022-10-16T01:44:48;2.23;;;1.77;;
4837;SDS011;2433;48.768;9.154;2022-10-16T01:47:14;2.10;;;1.23;;
4837;SDS011;2433;48.768;9.154;2022-10-16T01:49:41;2.20;;;1.30;;
4837;SDS011;2433;48.768;9.154;2022-10-16T01:52:09;6.03;;;1.30;;
4837;SDS011;2433;48.768;9.154;2022-10-16T01:54:37;4.40;;;3.10;;
4837;SDS011;2433;48.768;9.154;2022-10-16T01:57:04;1.53;;;1.30;;
4837;SDS011;2433;48.768;9.154;2022-10-16T01:59:36;1.10;;;1.00;;
4837;SDS011;2433;48.768;9.154;2022-10-16T02:02:07;1.67;;;1.13;;
4837;SDS011;2433;48.768;9.154;2022-10-16T02:04:44;2.77;;;1.30;;
4837;SDS011;2433;48.768;9.154;2022-10-16T02:07:11;1.60;;;1.50;;
4837;SDS011;2433;48.768;9.154;2022-10-16T02:09:37;2.13;;;1.43;;
4837;SDS011;2433;48.768;9.154;2022-10-16T02:12:05;2.40;;;1.63;;
4837;SDS011;2433;48.768;9.154;2022-10-16T02:14:36;1.30;;;1.20;;
4837;SDS011;2433;48.768;9.154;2022-10-16T02:17:09;2.00;;;1.40;;
4837;SDS011;2433;48.768;9.154;2022-10-16T02:19:36;3.87;;;1.40;;
4837;SDS011;2433;48.768;9.154;2022-10-16T02:22:02;1.93;;;1.40;;
4837;SDS011;2433;48.768;9.154;2022-10-16T02:24:39;2.37;;;1.17;;
4837;SDS011;2433;48.768;9.154;2022-10-16T02:27:17;2.33;;;1.37;;
4837;SDS011;2433;48.768;9.154;2022-10-16T02:29:47;1.63;;;1.13;;
4837;SDS011;2433;48.768;9.154;2022-10-16T02:32:19;1.50;;;1.10;;
4837;SDS011;2433;48.768;9.154;2022-10-16T02:34:47;1.23;;;1.13;;
4837;SDS011;2433;48.768;9.154;2022-10-16T02:37:13;1.80;;;1.17;;
4837;SDS011;2433;48.768;9.154;2022-10-16T02:39:39;4.33;;;0.97;;
4837;SDS011;2433;48.768;9.154;2022-10-16T02:42:09;2.13;;;1.20;;
4837;SDS011;2433;48.768;9.154;2022-10-16T02:44:36;7.03;;;1.17;;
4837;SDS011;2433;48.768;9.154;2022-10-16T02:47:02;4.40;;;1.30;;
4837;SDS011;2433;48.768;9.154;2022-10-16T02:49:27;1.70;;;1.10;;
4837;SDS011;2433;48.768;9.154;2022-10-16T02:51:53;2.10;;;1.40;;
4837;SDS011;2433;48.768;9.154;2022-10-16T02:54:18;1.33;;;1.23;;
4837;SDS011;2433;48.768;9.154;2022-10-16T02:56:44;0.93;;;0.87;;
4837;SDS011;2433;48.768;9.154;2022-10-16T02:59:09;1.90;;;1.10;;
4837;SDS011;2433;48.768;9.154;2022-10-16T03:01:35;1.00;;;0.90;;
4837;SDS011;2433;48.768;9.154;2022-10-16T03:04:00;1.20;;;1.10;;
4837;SDS011;2433;48.768;9.154;2022-10-16T03:06:26;1.70;;;1.10;;
4837;SDS011;2433;48.768;9.154;2022-10-16T03:08:52;2.40;;;1.10;;
4837;SDS011;2433;48.768;9.154;2022-10-16T03:11:17;1.10;;;0.97;;
4837;SDS011;2433;48.768;9.154;2022-10-16T03:13:43;2.80;;;1.20;;
4837;SDS011;2433;48.768;9.154;2022-10-16T03:16:08;1.40;;;0.87;;
4837;SDS011;2433;48.768;9.154;2022-10-16T03:18:34;1.53;;;1.40;;
4837;SDS011;2433;48.768;9.154;2022-10-16T03:21:00;2.10;;;1.93;;
4837;SDS011;2433;48.768;9.154;2022-10-16T03:23:25;1.83;;;1.27;;
4837;SDS011;2433;48.768;9.154;2022-10-16T03:25:51;3.47;;;1.10;;
4837;SDS011;2433;48.768;9.154;2022-10-16T03:28:16;1.97;;;0.83;;
4837;SDS011;2433;48.768;9.154;2022-10-16T03:30:42;2.13;;;1.40;;
4837;SDS011;2433;48.768;9.154;2022-10-16T03:33:08;1.40;;;1.10;;
4837;SDS011;2433;48.768;9.154;2022-10-16T03:35:34;2.00;;;1.43;;
4837;SDS011;2433;48.768;9.154;2022-10-16T03:38:00;1.00;;;1.00;;
4837;SDS011;2433;48.768;9.154;2022-10-16T03:40:25;1.90;;;1.10;;
4837;SDS011;2433;48.768;9.154;2022-10-16T03:42:51;1.13;;;1.03;;
4837;SDS011;2433;48.768;9.154;2022-10-16T03:45:16;2.83;;;1.47;;
4837;SDS011;2433;48.768;9.154;2022-10-16T03:47:42;4.90;;;1.27;;
4837;SDS011;2433;48.768;9.154;2022-10-16T03:50:07;2.17;;;1.00;;
4837;SDS011;2433;48.768;9.154;2022-10-16T03:52:33;1.97;;;0.90;;
4837;SDS011;2433;48.768;9.154;2022-10-16T03:54:58;4.40;;;1.50;;
4837;SDS011;2433;48.768;9.154;2022-10-16T03:57:24;1.10;;;1.00;;
4837;SDS011;2433;48.768;9.154;2022-10-16T03:59:50;2.03;;;1.10;;
4837;SDS011;2433;48.768;9.154;2022-10-16T04:02:15;1.00;;;0.90;;
4837;SDS011;2433;48.768;9.154;2022-10-16T04:04:41;2.40;;;1.30;;
4837;SDS011;2433;48.768;9.154;2022-10-16T04:07:07;1.30;;;1.20;;
4837;SDS011;2433;48.768;9.154;2022-10-16T04:09:32;0.83;;;0.83;;
4837;SDS011;2433;48.768;9.154;2022-10-16T04:11:58;1.20;;;1.10;;
4837;SDS011;2433;48.768;9.154;2022-10-16T04:14:23;2.30;;;1.17;;
4837;SDS011;2433;48.768;9.154;2022-10-16T04:16:49;2.03;;;0.70;;
4837;SDS011;2433;48.768;9.154;2022-10-16T04:19:14;2.70;;;1.10;;
4837;SDS011;2433;48.768;9.154;2022-10-16T04:21:40;1.33;;;1.10;;
4837;SDS011;2433;48.768;9.154;2022-10-16T04:24:05;1.63;;;0.80;;
4837;SDS011;2433;48.768;9.154;2022-10-16T04:26:31;1.20;;;0.93;;
4837;SDS011;2433;48.768;9.154;2022-10-16T04:28:56;1.90;;;1.07;;
4837;SDS011;2433;48.768;9.154;2022-10-16T04:31:22;3.53;;;1.63;;
4837;SDS011;2433;48.768;9.154;2022-10-16T04:33:48;1.60;;;1.20;;
4837;SDS011;2433;48.768;9.154;2022-10-16T04:36:14;2.40;;;1.10;;
4837;SDS011;2433;48.768;9.154;2022-10-16T04:38:39;1.37;;;1.20;;
4837;SDS011;2433;48.768;9.154;2022-10-16T04:41:05;2.57;;;1.10;;
4837;SDS011;2433;48.768;9.154;2022-10-16T04:43:32;1.40;;;1.00;;
4837;SDS011;2433;48.768;9.154;2022-10-16T04:45:58;1.63;;;1.03;;
4837;SDS011;2433;48.768;9.154;2022-10-16T04:48:24;3.10;;;1.30;;
4837;SDS011;2433;48.768;9.154;2022-10-16T04:50:49;2.00;;;1.30;;
4837;SDS011;2433;48.768;9.154;2022-10-16T04:53:15;1.47;;;1.07;;
4837;SDS011;2433;48.768;9.154;2022-10-16T04:55:41;2.37;;;1.50;;
4837;SDS011;2433;48.768;9.154;2022-10-16T04:58:07;1.40;;;1.30;;
4837;SDS011;2433;48.768;9.154;2022-10-16T05:00:33;1.37;;;1.13;;
4837;SDS011;2433;48.768;9.154;2022-10-16T05:02:59;1.83;;;1.20;;
4837;SDS011;2433;48.768;9.154;2022-10-16T05:05:26;1.33;;;1.23;;
4837;SDS011;2433;48.768;9.154;2022-10-16T05:07:52;1.20;;;0.90;;
4837;SDS011;2433;48.768;9.154;2022-10-16T05:10:17;1.07;;;0.83;;
4837;SDS011;2433;48.768;9.154;2022-10-16T05:12:43;3.87;;;1.03;;
4837;SDS011;2433;48.768;9.154;2022-10-16T05:15:09;1.23;;;1.13;;
4837;SDS011;2433;48.768;9.154;2022-10-16T05:17:34;2.77;;;1.27;;
4837;SDS011;2433;48.768;9.154;2022-10-16T05:20:00;1.20;;;1.03;;
4837;SDS011;2433;48.768;9.154;2022-10-16T05:22:26;3.17;;;1.63;;
4837;SDS011;2433;48.768;9.154;2022-10-16T05:24:51;1.97;;;1.10;;
4837;SDS011;2433;48.768;9.154;2022-10-16T05:27:17;1.13;;;0.90;;
4837;SDS011;2433;48.768;9.154;2022-10-16T05:29:46;1.57;;;0.97;;
4837;SDS011;2433;48.768;9.154;2022-10-16T05:32:12;2.90;;;1.30;;
4837;SDS011;2433;48.768;9.154;2022-10-16T05:34:41;1.43;;;1.33;;
4837;SDS011;2433;48.768;9.154;2022-10-16T05:37:07;1.87;;;0.83;;
4837;SDS011;2433;48.768;9.154;2022-10-16T05:39:32;4.47;;;1.33;;
4837;SDS011;2433;48.768;9.154;2022-10-16T05:41:58;1.67;;;0.90;;
4837;SDS011;2433;48.768;9.154;2022-10-16T05:44:23;3.80;;;0.87;;
4837;SDS011;2433;48.768;9.154;2022-10-16T05:46:49;1.90;;;1.33;;
4837;SDS011;2433;48.768;9.154;2022-10-16T05:49:14;1.43;;;1.20;;
4837;SDS011;2433;48.768;9.154;2022-10-16T05:51:40;1.27;;;1.17;;
4837;SDS011;2433;48.768;9.154;2022-10-16T05:54:06;2.40;;;1.40;;
4837;SDS011;2433;48.768;9.154;2022-10-16T05:56:32;1.77;;;1.10;;
4837;SDS011;2433;48.768;9.154;2022-10-16T05:58:58;2.33;;;1.30;;
4837;SDS011;2433;48.768;9.154;2022-10-16T06:01:23;1.40;;;1.10;;
4837;SDS011;2433;48.768;9.154;2022-10-16T06:03:50;1.10;;;1.00;;
4837;SDS011;2433;48.768;9.154;2022-10-16T06:06:20;1.73;;;1.33;;
4837;SDS011;2433;48.768;9.154;2022-10-16T06:08:48;1.30;;;1.20;;
4837;SDS011;2433;48.768;9.154;2022-10-16T06:11:16;1.43;;;0.97;;
4837;SDS011;2433;48.768;9.154;2022-10-16T06:13:51;2.93;;;1.20;;
4837;SDS011;2433;48.768;9.154;2022-10-16T06:16:21;4.87;;;2.33;;
4837;SDS011;2433;48.768;9.154;2022-10-16T06:18:47;3.37;;;1.20;;
4837;SDS011;2433;48.768;9.154;2022-10-16T06:21:14;1.87;;;1.00;;
4837;SDS011;2433;48.768;9.154;2022-10-16T06:23:41;1.20;;;1.00;;
4837;SDS011;2433;48.768;9.154;2022-10-16T06:26:11;3.43;;;1.57;;
4837;SDS011;2433;48.768;9.154;2022-10-16T06:28:38;1.13;;;1.10;;
4837;SDS011;2433;48.768;9.154;2022-10-16T06:31:04;3.47;;;1.30;;
4837;SDS011;2433;48.768;9.154;2022-10-16T06:33:30;1.23;;;1.13;;
4837;SDS011;2433;48.768;9.154;2022-10-16T06:36:00;1.40;;;1.30;;
4837;SDS011;2433;48.768;9.154;2022-10-16T06:38:27;0.90;;;0.83;;
4837;SDS011;2433;48.768;9.154;2022-10-16T06:40:53;2.30;;;1.13;;
4837;SDS011;2433;48.768;9.154;2022-10-16T06:43:19;2.17;;;1.60;;
4837;SDS011;2433;48.768;9.154;2022-10-16T06:45:50;3.80;;;1.43;;
4837;SDS011;2433;48.768;9.154;2022-10-16T06:48:19;1.10;;;1.00;;
4837;SDS011;2433;48.768;9.154;2022-10-16T06:50:54;1.37;;;1.17;;
4837;SDS011;2433;48.768;9.154;2022-10-16T06:53:21;2.30;;;1.17;;
4837;SDS011;2433;48.768;9.154;2022-10-16T06:55:47;2.80;;;1.10;;
4837;SDS011;2433;48.768;9.154;2022-10-16T06:58:12;4.80;;;1.50;;
4837;SDS011;2433;48.768;9.154;2022-10-16T07:00:38;3.03;;;1.57;;
4837;SDS011;2433;48.768;9.154;2022-10-16T07:03:03;2.00;;;1.50;;
4837;SDS011;2433;48.768;9.154;2022-10-16T07:05:29;2.20;;;1.13;;
4837;SDS011;2433;48.768;9.154;2022-10-16T07:07:54;1.83;;;1.10;;
4837;SDS011;2433;48.768;9.154;2022-10-16T07:10:20;1.90;;;1.70;;
4837;SDS011;2433;48.768;9.154;2022-10-16T07:12:49;1.57;;;1.30;;
4837;SDS011;2433;48.768;9.154;2022-10-16T07:15:15;1.43;;;1.20;;
4837;SDS011;2433;48.768;9.154;2022-10-16T07:17:40;1.40;;;1.13;;
4837;SDS011;2433;48.768;9.154;2022-10-16T07:20:06;1.53;;;1.37;;
4837;SDS011;2433;48.768;9.154;2022-10-16T07:22:32;1.40;;;1.10;;
4837;SDS011;2433;48.768;9.154;2022-10-16T07:24:58;1.97;;;1.10;;
4837;SDS011;2433;48.768;9.154;2022-10-16T07:27:23;2.70;;;1.57;;
4837;SDS011;2433;48.768;9.154;2022-10-16T07:29:49;1.20;;;1.10;;
4837;SDS011;2433;48.768;9.154;2022-10-16T07:32:15;2.30;;;1.30;;
4837;SDS011;2433;48.768;9.154;2022-10-16T07:34:40;2.93;;;1.20;;
4837;SDS011;2433;48.768;9.154;2022-10-16T07:37:07;1.57;;;1.10;;
4837;SDS011;2433;48.768;9.154;2022-10-16T07:39:33;2.57;;;1.17;;
4837;SDS011;2433;48.768;9.154;2022-10-16T07:42:01;2.53;;;1.57;;
4837;SDS011;2433;48.768;9.154;2022-10-16T07:44:26;2.70;;;1.60;;
4837;SDS011;2433;48.768;9.154;2022-10-16T07:46:52;1.03;;;0.93;;
4837;SDS011;2433;48.768;9.154;2022-10-16T07:49:17;2.10;;;1.53;;
4837;SDS011;2433;48.768;9.154;2022-10-16T07:51:43;3.47;;;1.57;;
4837;SDS011;2433;48.768;9.154;2022-10-16T07:54:09;6.17;;;1.20;;
4837;SDS011;2433;48.768;9.154;2022-10-16T07:56:35;2.13;;;1.40;;
4837;SDS011;2433;48.768;9.154;2022-10-16T07:59:00;2.53;;;1.20;;
4837;SDS011;2433;48.768;9.154;2022-10-16T08:01:26;2.00;;;1.40;;
4837;SDS011;2433;48.768;9.154;2022-10-16T08:03:52;1.50;;;1.20;;
4837;SDS011;2433;48.768;9.154;2022-10-16T08:06:19;1.73;;;1.40;;
4837;SDS011;2433;48.768;9.154;2022-10-16T08:08:45;1.30;;;1.10;;
4837;SDS011;2433;48.768;9.154;2022-10-16T08:11:11;1.20;;;1.00;;
4837;SDS011;2433;48.768;9.154;2022-10-16T08:13:37;2.47;;;1.20;;
4837;SDS011;2433;48.768;9.154;2022-10-16T08:16:02;2.73;;;1.40;;
4837;SDS011;2433;48.768;9.154;2022-10-16T08:18:33;1.10;;;1.00;;
4837;SDS011;2433;48.768;9.154;2022-10-16T08:21:00;3.20;;;1.77;;
4837;SDS011;2433;48.768;9.154;2022-10-16T08:23:27;1.90;;;1.47;;
4837;SDS011;2433;48.768;9.154;2022-10-16T08:25:53;4.20;;;1.43;;
4837;SDS011;2433;48.768;9.154;2022-10-16T08:28:20;1.20;;;1.00;;
4837;SDS011;2433;48.768;9.154;2022-10-16T08:30:45;6.20;;;1.10;;
4837;SDS011;2433;48.768;9.154;2022-10-16T08:33:11;1.33;;;1.23;;
4837;SDS011;2433;48.768;9.154;2022-10-16T08:35:36;2.40;;;1.43;;
4837;SDS011;2433;48.768;9.154;2022-10-16T08:38:03;1.30;;;1.20;;
4837;SDS011;2433;48.768;9.154;2022-10-16T08:40:30;3.20;;;1.60;;
4837;SDS011;2433;48.768;9.154;2022-10-16T08:43:11;1.30;;;1.20;;
4837;SDS011;2433;48.768;9.154;2022-10-16T08:48:49;5.70;;;1.17;;
4837;SDS011;2433;48.768;9.154;2022-10-16T08:51:18;2.13;;;1.93;;
4837;SDS011;2433;48.768;9.154;2022-10-16T08:53:49;1.73;;;1.30;;
4837;SDS011;2433;48.768;9.154;2022-10-16T08:56:17;1.77;;;1.10;;
4837;SDS011;2433;48.768;9.154;2022-10-16T08:58:43;1.87;;;1.40;;
4837;SDS011;2433;48.768;9.154;2022-10-16T09:01:11;1.73;;;1.50;;
4837;SDS011;2433;48.768;9.154;2022-10-16T09:11:45;2.97;;;1.27;;
4837;SDS011;2433;48.768;9.154;2022-10-16T09:16:51;2.37;;;1.07;;
4837;SDS011;2433;48.768;9.154;2022-10-16T09:19:24;1.67;;;1.20;;
4837;SDS011;2433;48.768;9.154;2022-10-16T09:21:54;1.40;;;1.13;;
4837;SDS011;2433;48.768;9.154;2022-10-16T09:24:21;0.77;;;0.77;;
4837;SDS011;2433;48.768;9.154;2022-10-16T09:26:49;2.23;;;1.40;;
4837;SDS011;2433;48.768;9.154;2022-10-16T09:29:16;3.30;;;1.47;;
4837;SDS011;2433;48.768;9.154;2022-10-16T09:31:46;1.43;;;1.33;;
4837;SDS011;2433;48.768;9.154;2022-10-16T09:34:22;1.40;;;1.30;;
4837;SDS011;2433;48.768;9.154;2022-10-16T09:36:51;3.93;;;1.50;;
4837;SDS011;2433;48.768;9.154;2022-10-16T09:39:17;1.57;;;1.30;;
4837;SDS011;2433;48.768;9.154;2022-10-16T09:41:43;1.93;;;1.30;;
4837;SDS011;2433;48.768;9.154;2022-10-16T09:44:20;4.17;;;1.70;;
4837;SDS011;2433;48.768;9.154;2022-10-16T09:46:48;3.27;;;1.40;;
4837;SDS011;2433;48.768;9.154;2022-10-16T09:49:21;1.60;;;1.50;;
4837;SDS011;2433;48.768;9.154;2022-10-16T09:51:48;1.40;;;1.17;;
4837;SDS011;2433;48.768;9.154;2022-10-16T09:54:18;1.50;;;1.40;;
4837;SDS011;2433;48.768;9.154;2022-10-16T09:56:46;1.57;;;1.47;;
4837;SDS011;2433;48.768;9.154;2022-10-16T10:01:47;1.97;;;1.40;;
4837;SDS011;2433;48.768;9.154;2022-10-16T10:04:14;1.30;;;1.00;;
4837;SDS011;2433;48.768;9.154;2022-10-16T10:06:45;1.23;;;1.13;;
4837;SDS011;2433;48.768;9.154;2022-10-16T10:09:15;2.27;;;1.37;;
4837;SDS011;2433;48.768;9.154;2022-10-16T10:16:43;1.03;;;0.93;;
4837;SDS011;2433;48.768;9.154;2022-10-16T10:19:16;1.67;;;1.47;;
4837;SDS011;2433;48.768;9.154;2022-10-16T10:21:42;1.00;;;0.90;;
4837;SDS011;2433;48.768;9.154;2022-10-16T10:24:12;2.83;;;1.10;;
4837;SDS011;2433;48.768;9.154;2022-10-16T10:26:38;3.87;;;1.40;;
4837;SDS011;2433;48.768;9.154;2022-10-16T10:29:18;2.13;;;1.30;;
4837;SDS011;2433;48.768;9.154;2022-10-16T10:37:00;2.20;;;1.13;;
4837;SDS011;2433;48.768;9.154;2022-10-16T10:39:39;1.13;;;0.97;;
4837;SDS011;2433;48.768;9.154;2022-10-16T10:42:21;3.60;;;1.07;;
4837;SDS011;2433;48.768;9.154;2022-10-16T10:47:43;1.40;;;1.03;;
4837;SDS011;2433;48.768;9.154;2022-10-16T10:55:59;1.53;;;1.10;;
4837;SDS011;2433;48.768;9.154;2022-10-16T11:09:18;1.63;;;0.90;;
4837;SDS011;2433;48.768;9.154;2022-10-16T11:12:01;1.83;;;1.10;;
4837;SDS011;2433;48.768;9.154;2022-10-16T11:14:38;2.17;;;1.47;;
4837;SDS011;2433;48.768;9.154;2022-10-16T11:17:08;1.50;;;0.90;;
4837;SDS011;2433;48.768;9.154;2022-10-16T11:27:19;1.20;;;1.00;;
4837;SDS011;2433;48.768;9.154;2022-10-16T11:29:53;1.03;;;0.93;;
4837;SDS011;2433;48.768;9.154;2022-10-16T11:32:25;1.20;;;1.10;;
4837;SDS011;2433;48.768;9.154;2022-10-16T11:34:57;1.50;;;1.40;;
4837;SDS011;2433;48.768;9.154;2022-10-16T11:37:36;1.00;;;0.90;;
4837;SDS011;2433;48.768;9.154;2022-10-16T11:40:24;1.27;;;1.17;;
4837;SDS011;2433;48.768;9.154;2022-10-16T11:45:42;1.47;;;0.80;;
4837;SDS011;2433;48.768;9.154;2022-10-16T11:56:03;0.83;;;0.50;;
4837;SDS011;2433;48.768;9.154;2022-10-16T12:06:42;1.60;;;1.27;;
4837;SDS011;2433;48.768;9.154;2022-10-16T12:09:29;0.80;;;0.80;;
4837;SDS011;2433;48.768;9.154;2022-10-16T12:11:57;2.60;;;1.33;;
4837;SDS011;2433;48.768;9.154;2022-10-16T12:17:02;1.20;;;1.03;;
4837;SDS011;2433;48.768;9.154;2022-10-16T12:20:12;1.87;;;1.20;;
4837;SDS011;2433;48.768;9.154;2022-10-16T12:22:49;2.60;;;1.50;;
4837;SDS011;2433;48.768;9.154;2022-10-16T12:25:35;3.07;;;0.93;;
4837;SDS011;2433;48.768;9.154;2022-10-16T12:28:07;1.30;;;1.13;;
4837;SDS011;2433;48.768;9.154;2022-10-16T12:30:51;2.30;;;1.30;;
4837;SDS011;2433;48.768;9.154;2022-10-16T12:33:22;1.10;;;1.00;;
4837;SDS011;2433;48.768;9.154;2022-10-16T12:35:49;2.17;;;1.10;;
4837;SDS011;2433;48.768;9.154;2022-10-16T12:38:29;1.60;;;1.00;;
4837;SDS011;2433;48.768;9.154;2022-10-16T12:40:59;1.60;;;1.50;;
4837;SDS011;2433;48.768;9.154;2022-10-16T12:46:33;1.10;;;1.00;;
4837;SDS011;2433;48.768;9.154;2022-10-16T12:51:41;2.97;;;1.00;;
4837;SDS011;2433;48.768;9.154;2022-10-16T13:05:38;1.20;;;1.10;;
4837;SDS011;2433;48.768;9.154;2022-10-16T13:14:24;1.57;;;1.27;;
4837;SDS011;2433;48.768;9.154;2022-10-16T13:17:09;2.40;;;1.20;;
4837;SDS011;2433;48.768;9.154;2022-10-16T13:22:58;1.80;;;1.03;;
4837;SDS011;2433;48.768;9.154;2022-10-16T13:28:27;2.40;;;1.13;;
4837;SDS011;2433;48.768;9.154;2022-10-16T13:30:55;2.50;;;1.20;;
4837;SDS011;2433;48.768;9.154;2022-10-16T13:33:33;2.03;;;1.20;;
4837;SDS011;2433;48.768;9.154;2022-10-16T13:36:00;1.57;;;1.20;;
4837;SDS011;2433;48.768;9.154;2022-10-16T13:38:27;2.50;;;1.40;;
4837;SDS011;2433;48.768;9.154;2022-10-16T13:40:58;2.50;;;1.50;;
4837;SDS011;2433;48.768;9.154;2022-10-16T13:43:32;2.47;;;1.77;;
4837;SDS011;2433;48.768;9.154;2022-10-16T13:46:03;6.03;;;1.50;;
4837;SDS011;2433;48.768;9.154;2022-10-16T13:48:31;1.57;;;1.40;;
4837;SDS011;2433;48.768;9.154;2022-10-16T13:50:58;1.50;;;1.40;;
4837;SDS011;2433;48.768;9.154;2022-10-16T13:53:25;2.50;;;1.73;;
4837;SDS011;2433;48.768;9.154;2022-10-16T13:55:50;2.37;;;1.60;;
4837;SDS011;2433;48.768;9.154;2022-10-16T13:58:16;2.90;;;1.80;;
4837;SDS011;2433;48.768;9.154;2022-10-16T14:00:58;1.87;;;1.20;;
4837;SDS011;2433;48.768;9.154;2022-10-16T14:03:26;1.53;;;1.43;;
4837;SDS011;2433;48.768;9.154;2022-10-16T14:05:54;1.80;;;1.30;;
4837;SDS011;2433;48.768;9.154;2022-10-16T14:08:21;1.90;;;1.40;;
4837;SDS011;2433;48.768;9.154;2022-10-16T14:10:48;1.60;;;1.50;;
4837;SDS011;2433;48.768;9.154;2022-10-16T14:13:17;1.53;;;1.30;;
4837;SDS011;2433;48.768;9.154;2022-10-16T14:15:48;6.30;;;1.53;;
4837;SDS011;2433;48.768;9.154;2022-10-16T14:18:19;3.67;;;2.03;;
4837;SDS011;2433;48.768;9.154;2022-10-16T14:20:47;1.83;;;1.73;;
4837;SDS011;2433;48.768;9.154;2022-10-16T14:23:29;2.00;;;1.50;;
4837;SDS011;2433;48.768;9.154;2022-10-16T14:28:34;4.00;;;1.30;;
4837;SDS011;2433;48.768;9.154;2022-10-16T14:31:00;3.20;;;2.40;;
4837;SDS011;2433;48.768;9.154;2022-10-16T14:36:00;1.80;;;1.47;;
4837;SDS011;2433;48.768;9.154;2022-10-16T14:38:30;1.67;;;1.57;;
4837;SDS011;2433;48.768;9.154;2022-10-16T14:40:57;2.17;;;1.60;;
4837;SDS011;2433;48.768;9.154;2022-10-16T14:43:27;1.77;;;1.60;;
4837;SDS011;2433;48.768;9.154;2022-10-16T14:45:57;2.30;;;1.97;;
4837;SDS011;2433;48.768;9.154;2022-10-16T14:48:22;1.90;;;1.70;;
4837;SDS011;2433;48.768;9.154;2022-10-16T14:50:49;1.50;;;1.33;;
4837;SDS011;2433;48.768;9.154;2022-10-16T14:53:14;2.57;;;2.20;;
4837;SDS011;2433;48.768;9.154;2022-10-16T14:55:41;1.80;;;1.70;;
4837;SDS011;2433;48.768;9.154;2022-10-16T14:58:16;1.90;;;1.43;;
4837;SDS011;2433;48.768;9.154;2022-10-16T15:00:43;1.97;;;1.80;;
4837;SDS011;2433;48.768;9.154;2022-10-16T15:03:09;3.37;;;1.93;;
4837;SDS011;2433;48.768;9.154;2022-10-16T15:05:35;2.27;;;1.90;;
4837;SDS011;2433;48.768;9.154;2022-10-16T15:08:00;2.40;;;2.00;;
4837;SDS011;2433;48.768;9.154;2022-10-16T15:10:26;1.73;;;1.63;;
4837;SDS011;2433;48.768;9.154;2022-10-16T15:12:53;4.07;;;1.90;;
4837;SDS011;2433;48.768;9.154;2022-10-16T15:18:00;3.00;;;1.67;;
4837;SDS011;2433;48.768;9.154;2022-10-16T15:20:28;1.60;;;1.50;;
4837;SDS011;2433;48.768;9.154;2022-10-16T15:22:55;3.63;;;1.83;;
4837;SDS011;2433;48.768;9.154;2022-10-16T15:27:53;2.60;;;2.17;;
4837;SDS011;2433;48.768;9.154;2022-10-16T15:30:19;3.17;;;1.90;;
4837;SDS011;2433;48.768;9.154;2022-10-16T15:32:44;1.80;;;1.70;;
4837;SDS011;2433;48.768;9.154;2022-10-16T15:35:10;2.30;;;1.80;;
4837;SDS011;2433;48.768;9.154;2022-10-16T15:37:35;3.53;;;2.50;;
4837;SDS011;2433;48.768;9.154;2022-10-16T15:40:01;2.70;;;2.40;;
4837;SDS011;2433;48.768;9.154;2022-10-16T15:42:27;11.03;;;1.80;;
4837;SDS011;2433;48.768;9.154;2022-10-16T15:44:52;1.60;;;1.50;;
4837;SDS011;2433;48.768;9.154;2022-10-16T15:47:18;4.73;;;2.00;;
4837;SDS011;2433;48.768;9.154;2022-10-16T15:49:43;3.47;;;2.10;;
4837;SDS011;2433;48.768;9.154;2022-10-16T15:52:09;1.80;;;1.70;;
4837;SDS011;2433;48.768;9.154;2022-10-16T15:54:34;2.53;;;2.17;;
4837;SDS011;2433;48.768;9.154;2022-10-16T15:57:00;2.33;;;1.97;;
4837;SDS011;2433;48.768;9.154;2022-10-16T15:59:26;2.73;;;2.30;;
4837;SDS011;2433;48.768;9.154;2022-10-16T16:01:51;3.70;;;2.37;;
4837;SDS011;2433;48.768;9.154;2022-10-16T16:04:16;3.30;;;3.00;;
4837;SDS011;2433;48.768;9.154;2022-10-16T16:06:43;5.80;;;3.77;;
4837;SDS011;2433;48.768;9.154;2022-10-16T16:09:10;4.20;;;3.80;;
4837;SDS011;2433;48.768;9.154;2022-10-16T16:11:36;7.70;;;5.67;;
4837;SDS011;2433;48.768;9.154;2022-10-16T16:14:06;6.17;;;5.37;;
4837;SDS011;2433;48.768;9.154;2022-10-16T16:16:33;9.17;;;6.37;;
4837;SDS011;2433;48.768;9.154;2022-10-16T16:19:06;12.30;;;6.50;;
4837;SDS011;2433;48.768;9.154;2022-10-16T16:21:32;6.77;;;6.07;;
4837;SDS011;2433;48.768;9.154;2022-10-16T16:23:58;5.57;;;5.03;;
4837;SDS011;2433;48.768;9.154;2022-10-16T16:26:25;11.03;;;4.93;;
4837;SDS011;2433;48.768;9.154;2022-10-16T16:29:00;12.27;;;5.37;;
4837;SDS011;2433;48.768;9.154;2022-10-16T16:31:26;8.07;;;6.30;;
4837;SDS011;2433;48.768;9.154;2022-10-16T16:33:53;6.13;;;5.13;;
4837;SDS011;2433;48.768;9.154;2022-10-16T16:36:19;6.67;;;5.27;;
4837;SDS011;2433;48.768;9.154;2022-10-16T16:38:45;5.53;;;4.60;;
4837;SDS011;2433;48.768;9.154;2022-10-16T16:41:15;5.80;;;4.03;;
4837;SDS011;2433;48.768;9.154;2022-10-16T16:43:44;5.80;;;4.30;;
4837;SDS011;2433;48.768;9.154;2022-10-16T16:46:12;4.73;;;3.43;;
4837;SDS011;2433;48.768;9.154;2022-10-16T16:48:39;5.17;;;3.23;;
4837;SDS011;2433;48.768;9.154;2022-10-16T16:51:05;4.77;;;3.10;;
4837;SDS011;2433;48.768;9.154;2022-10-16T16:53:34;4.03;;;2.70;;
4837;SDS011;2433;48.768;9.154;2022-10-16T16:56:03;7.33;;;5.27;;
4837;SDS011;2433;48.768;9.154;2022-10-16T16:58:30;5.37;;;4.83;;
4837;SDS011;2433;48.768;9.154;2022-10-16T17:00:56;3.43;;;3.07;;
4837;SDS011;2433;48.768;9.154;2022-10-16T17:03:26;6.73;;;4.30;;
4837;SDS011;2433;48.768;9.154;2022-10-16T17:06:00;2.80;;;2.50;;
4837;SDS011;2433;48.768;9.154;2022-10-16T17:08:28;5.40;;;3.27;;
4837;SDS011;2433;48.768;9.154;2022-10-16T17:10:55;2.67;;;2.47;;
4837;SDS011;2433;48.768;9.154;2022-10-16T17:13:27;8.37;;;2.87;;
4837;SDS011;2433;48.768;9.154;2022-10-16T17:15:54;4.57;;;2.77;;
4837;SDS011;2433;48.768;9.154;2022-10-16T17:18:20;8.47;;;2.93;;
4837;SDS011;2433;48.768;9.154;2022-10-16T17:20:48;2.90;;;2.57;;
4837;SDS011;2433;48.768;9.154;2022-10-16T17:23:15;3.40;;;2.90;;
4837;SDS011;2433;48.768;9.154;2022-10-16T17:25:41;2.60;;;2.40;;
4837;SDS011;2433;48.768;9.154;2022-10-16T17:28:08;3.10;;;2.80;;
4837;SDS011;2433;48.768;9.154;2022-10-16T17:30:38;2.97;;;2.20;;
4837;SDS011;2433;48.768;9.154;2022-10-16T17:33:05;4.83;;;2.90;;